createdAt,value
2019-03-06T00:00:44.546Z,63.98
2019-03-06T00:03:13.055Z,64.12
2019-03-06T00:05:41.796Z,64.28
2019-03-06T00:08:10.242Z,64.57
2019-03-06T00:10:38.772Z,64.68
2019-03-06T00:13:07.308Z,64.74
2019-03-06T00:15:35.753Z,64.81
2019-03-06T00:18:04.794Z,64.94
2019-03-06T00:20:33.354Z,65.13
2019-03-06T00:23:02.177Z,65.17
2019-03-06T00:25:30.702Z,65.14
2019-03-06T00:27:59.159Z,65.07
2019-03-06T00:30:27.877Z,65.03
2019-03-06T00:32:56.414Z,64.88
2019-03-06T00:35:26.565Z,64.92
2019-03-06T00:37:55.064Z,64.94
2019-03-06T00:40:34.233Z,64.90
2019-03-06T00:43:02.907Z,64.95
2019-03-06T00:45:31.448Z,65.12
2019-03-06T00:47:59.860Z,65.01
2019-03-06T00:50:28.341Z,64.99
2019-03-06T00:52:56.762Z,65.01
2019-03-06T00:55:25.250Z,65.12
2019-03-06T00:57:53.702Z,65.16
2019-03-06T01:00:24.804Z,65.17
2019-03-06T01:02:54.105Z,65.11
2019-03-06T01:05:22.986Z,65.09
2019-03-06T01:07:51.534Z,65.14
2019-03-06T01:10:20.210Z,65.19
2019-03-06T01:12:48.806Z,65.12
2019-03-06T01:15:19.149Z,65.23
2019-03-06T01:17:47.856Z,65.39
2019-03-06T01:20:16.806Z,65.38
2019-03-06T01:22:45.230Z,65.40
2019-03-06T01:25:19.250Z,65.47
2019-03-06T01:27:47.839Z,65.42
2019-03-06T01:30:21.561Z,65.46
2019-03-06T01:32:58.306Z,65.48
2019-03-06T01:35:45.021Z,65.57
2019-03-06T01:38:20.892Z,65.49
2019-03-06T01:40:56.850Z,65.26
2019-03-06T01:43:35.905Z,65.17
2019-03-06T01:46:04.369Z,65.11
2019-03-06T01:48:32.797Z,65.16
2019-03-06T01:51:01.376Z,65.40
2019-03-06T01:53:29.819Z,65.40
2019-03-06T01:55:58.454Z,65.43
2019-03-06T01:58:26.872Z,65.41
2019-03-06T02:00:55.462Z,65.43
2019-03-06T02:03:23.980Z,65.35
2019-03-06T02:05:52.421Z,65.23
2019-03-06T02:08:20.866Z,65.27
2019-03-06T02:10:50.171Z,65.46
2019-03-06T02:13:21.649Z,65.50
2019-03-06T02:15:50.116Z,65.50
2019-03-06T02:18:18.573Z,65.52
2019-03-06T02:20:47.038Z,65.69
2019-03-06T02:23:15.676Z,65.68
2019-03-06T02:25:44.102Z,65.63
2019-03-06T02:28:12.540Z,65.56
2019-03-06T02:30:41.139Z,65.64
2019-03-06T02:33:09.625Z,65.45
2019-03-06T02:35:38.431Z,65.44
2019-03-06T02:38:06.848Z,65.69
2019-03-06T02:40:35.339Z,65.65
2019-03-06T02:43:03.952Z,65.43
2019-03-06T02:45:32.400Z,65.36
2019-03-06T02:48:00.829Z,65.19
2019-03-06T02:50:29.296Z,65.19
2019-03-06T02:52:57.739Z,65.47
2019-03-06T02:55:26.518Z,65.47
2019-03-06T02:58:12.021Z,65.21
2019-03-06T03:00:57.493Z,65.14
2019-03-06T03:03:30.540Z,65.14
2019-03-06T03:06:16.586Z,65.18
2019-03-06T03:08:45.087Z,65.31
2019-03-06T03:11:13.589Z,65.14
2019-03-06T03:13:42.071Z,65.15
2019-03-06T03:16:10.594Z,65.18
2019-03-06T03:18:39.308Z,65.27
2019-03-06T03:21:07.819Z,65.28
2019-03-06T03:23:36.337Z,65.41
2019-03-06T03:26:04.777Z,65.41
2019-03-06T03:28:33.208Z,65.41
2019-03-06T03:31:01.630Z,65.93
2019-03-06T03:33:30.101Z,65.26
2019-03-06T03:35:58.534Z,65.42
2019-03-06T03:38:27.077Z,65.37
2019-03-06T03:40:55.505Z,65.37
2019-03-06T03:43:23.978Z,65.26
2019-03-06T03:45:52.708Z,65.26
2019-03-06T03:48:21.145Z,65.60
2019-03-06T03:50:49.619Z,65.33
2019-03-06T03:53:18.050Z,65.09
2019-03-06T03:55:46.487Z,64.97
2019-03-06T03:58:14.914Z,64.97
2019-03-06T04:00:43.572Z,64.99
2019-03-06T04:03:12.056Z,64.64
2019-03-06T04:05:40.959Z,64.64
2019-03-06T04:08:09.403Z,64.83
2019-03-06T04:10:37.934Z,64.83
2019-03-06T04:13:06.664Z,64.98
2019-03-06T04:15:35.382Z,64.89
2019-03-06T04:18:03.892Z,64.69
2019-03-06T04:20:32.419Z,64.78
2019-03-06T04:23:01.017Z,64.95
2019-03-06T04:25:29.529Z,64.76
2019-03-06T04:27:58.081Z,64.59
2019-03-06T04:30:26.543Z,64.65
2019-03-06T04:32:55.385Z,64.71
2019-03-06T04:35:23.814Z,64.58
2019-03-06T04:37:52.280Z,64.66
2019-03-06T04:40:20.714Z,64.66
2019-03-06T04:42:49.142Z,64.53
2019-03-06T04:45:18.590Z,64.84
2019-03-06T04:47:47.068Z,64.56
2019-03-06T04:50:15.933Z,64.77
2019-03-06T04:52:44.664Z,64.99
2019-03-06T04:55:15.152Z,65.00
2019-03-06T04:57:43.881Z,65.00
2019-03-06T05:00:14.686Z,65.15
2019-03-06T05:02:43.196Z,65.12
2019-03-06T05:05:11.716Z,65.19
2019-03-06T05:07:40.205Z,65.25
2019-03-06T05:10:11.571Z,65.05
2019-03-06T05:12:40.017Z,65.14
2019-03-06T05:15:13.813Z,65.14
2019-03-06T05:18:00.410Z,64.88
2019-03-06T05:20:29.221Z,64.76
2019-03-06T05:22:57.701Z,64.57
2019-03-06T05:25:26.143Z,64.54
2019-03-06T05:27:54.658Z,64.47
2019-03-06T05:30:24.759Z,64.47
2019-03-06T05:32:56.478Z,64.60
2019-03-06T05:35:27.977Z,64.59
2019-03-06T05:38:17.888Z,64.69
2019-03-06T05:40:46.345Z,64.91
2019-03-06T05:43:14.866Z,65.16
2019-03-06T05:45:43.337Z,65.10
2019-03-06T05:48:11.782Z,65.28
2019-03-06T05:50:40.218Z,65.77
2019-03-06T05:53:08.831Z,65.73
2019-03-06T05:55:37.258Z,65.77
2019-03-06T05:58:05.733Z,66.19
2019-03-06T06:00:34.178Z,66.29
2019-03-06T06:03:02.731Z,66.33
2019-03-06T06:05:31.169Z,66.32
2019-03-06T06:07:59.698Z,66.28
2019-03-06T06:10:28.143Z,66.55
2019-03-06T06:12:57.021Z,66.50
2019-03-06T06:15:26.026Z,66.58
2019-03-06T06:17:54.467Z,66.38
2019-03-06T06:20:22.893Z,66.00
2019-03-06T06:23:04.597Z,66.17
2019-03-06T06:25:34.637Z,66.19
2019-03-06T06:28:03.064Z,66.25
2019-03-06T06:30:32.034Z,66.84
2019-03-06T06:33:00.490Z,66.84
2019-03-06T06:35:28.929Z,66.63
2019-03-06T06:37:57.373Z,66.68
2019-03-06T06:40:25.845Z,66.14
2019-03-06T06:42:54.655Z,65.97
2019-03-06T06:45:23.366Z,65.91
2019-03-06T06:48:11.238Z,65.71
2019-03-06T06:50:45.665Z,66.00
2019-03-06T06:53:17.254Z,65.70
2019-03-06T06:55:54.669Z,65.46
2019-03-06T06:58:37.914Z,65.01
2019-03-06T07:01:19.803Z,65.11
2019-03-06T07:04:22.368Z,65.21
2019-03-06T07:07:01.147Z,65.01
2019-03-06T07:09:31.339Z,64.97
2019-03-06T07:12:01.459Z,65.00
2019-03-06T07:14:31.629Z,65.08
2019-03-06T07:17:01.715Z,64.95
2019-03-06T07:19:31.847Z,65.23
2019-03-06T07:22:07.817Z,65.08
2019-03-06T07:24:40.608Z,64.94
2019-03-06T07:27:16.641Z,65.01
2019-03-06T07:29:55.513Z,65.36
2019-03-06T07:32:37.373Z,65.45
2019-03-06T07:35:49.906Z,65.20
2019-03-06T07:38:18.337Z,65.08
2019-03-06T07:41:01.978Z,65.13
2019-03-06T07:43:48.446Z,64.92
2019-03-06T07:46:18.698Z,64.96
2019-03-06T07:49:06.661Z,64.90
2019-03-06T07:51:39.576Z,64.85
2019-03-06T07:54:12.645Z,65.12
2019-03-06T07:56:50.494Z,64.90
2019-03-06T07:59:18.945Z,64.87
2019-03-06T08:01:50.731Z,65.02
2019-03-06T08:04:19.122Z,64.74
2019-03-06T08:06:52.213Z,64.67
2019-03-06T08:09:21.589Z,64.72
2019-03-06T08:12:08.217Z,64.86
2019-03-06T08:14:50.162Z,64.93
2019-03-06T08:17:29.189Z,64.73
2019-03-06T08:20:02.354Z,64.84
2019-03-06T08:22:41.395Z,64.87
2019-03-06T08:25:17.761Z,65.01
2019-03-06T08:27:46.738Z,65.36
2019-03-06T08:30:15.411Z,64.88
2019-03-06T08:32:43.832Z,64.66
2019-03-06T08:35:12.357Z,64.38
2019-03-06T08:37:40.900Z,64.24
2019-03-06T08:40:11.125Z,63.82
2019-03-06T08:42:39.646Z,63.62
2019-03-06T08:45:15.300Z,63.55
2019-03-06T08:47:45.500Z,63.23
2019-03-06T08:50:21.991Z,63.31
2019-03-06T08:53:08.330Z,63.26
2019-03-06T08:55:38.463Z,63.63
2019-03-06T08:58:20.484Z,63.63
2019-03-06T09:00:50.767Z,63.25
2019-03-06T09:03:22.705Z,63.36
2019-03-06T09:05:55.598Z,63.55
2019-03-06T09:08:31.575Z,63.74
2019-03-06T09:11:10.323Z,63.89
2019-03-06T09:13:43.409Z,64.05
2019-03-06T09:16:31.688Z,64.00
2019-03-06T09:19:16.986Z,63.80
2019-03-06T09:21:47.064Z,63.52
2019-03-06T09:24:32.302Z,63.17
2019-03-06T09:27:02.420Z,62.91
2019-03-06T09:29:32.513Z,62.46
2019-03-06T09:32:11.759Z,62.45
2019-03-06T09:34:44.976Z,62.39
2019-03-06T09:37:24.321Z,62.59
2019-03-06T09:39:57.640Z,62.47
2019-03-06T09:42:39.658Z,62.45
2019-03-06T09:45:27.563Z,62.62
2019-03-06T09:47:57.738Z,62.66
2019-03-06T09:50:30.793Z,62.72
2019-03-06T09:53:18.700Z,62.84
2019-03-06T09:55:54.712Z,62.55
2019-03-06T09:58:42.970Z,62.36
2019-03-06T10:01:13.050Z,61.98
2019-03-06T10:03:58.324Z,61.92
2019-03-06T10:06:34.227Z,61.74
2019-03-06T10:09:10.582Z,61.50
2019-03-06T10:11:46.395Z,61.65
2019-03-06T10:14:22.464Z,61.44
2019-03-06T10:17:10.806Z,61.20
2019-03-06T10:19:43.617Z,61.09
2019-03-06T10:22:12.054Z,61.23
2019-03-06T10:24:40.480Z,61.15
2019-03-06T10:27:08.914Z,60.81
2019-03-06T10:29:37.642Z,60.92
2019-03-06T10:32:06.157Z,60.93
2019-03-06T10:34:35.171Z,60.99
2019-03-06T10:39:32.266Z,61.39
2019-03-06T10:42:00.694Z,61.99
2019-03-06T10:44:30.077Z,62.08
2019-03-06T10:46:58.702Z,61.88
2019-03-06T10:49:27.430Z,61.80
2019-03-06T10:51:55.844Z,61.92
2019-03-06T10:54:24.305Z,62.05
2019-03-06T10:56:52.730Z,61.92
2019-03-06T10:59:21.214Z,61.63
2019-03-06T11:01:49.751Z,61.43
2019-03-06T11:04:31.639Z,61.30
2019-03-06T11:07:00.371Z,61.31
2019-03-06T11:09:29.336Z,61.09
2019-03-06T11:11:58.046Z,60.83
2019-03-06T11:14:26.960Z,60.85
2019-03-06T11:16:55.564Z,61.01
2019-03-06T11:19:24.280Z,60.96
2019-03-06T11:21:52.710Z,60.84
2019-03-06T11:24:21.437Z,60.96
2019-03-06T11:26:53.477Z,61.01
2019-03-06T11:29:22.151Z,60.92
2019-03-06T11:31:50.646Z,60.80
2019-03-06T11:34:19.314Z,60.87
2019-03-06T11:36:48.695Z,60.75
2019-03-06T11:39:17.408Z,60.64
2019-03-06T11:41:45.856Z,60.57
2019-03-06T11:44:14.314Z,60.34
2019-03-06T11:46:42.808Z,60.27
2019-03-06T11:49:11.291Z,60.42
2019-03-06T11:51:39.769Z,60.53
2019-03-06T11:54:08.696Z,60.42
2019-03-06T11:56:37.516Z,60.22
2019-03-06T11:59:06.220Z,60.04
2019-03-06T12:01:35.852Z,59.83
2019-03-06T12:04:04.664Z,59.72
2019-03-06T12:06:33.378Z,59.73
2019-03-06T12:09:01.981Z,59.74
2019-03-06T12:11:31.071Z,60.04
2019-03-06T12:14:01.205Z,60.25
2019-03-06T12:16:29.657Z,60.34
2019-03-06T12:18:58.101Z,60.20
2019-03-06T12:21:26.565Z,60.27
2019-03-06T12:23:55.027Z,60.25
2019-03-06T12:26:23.511Z,60.02
2019-03-06T12:28:51.966Z,59.65
2019-03-06T12:31:21.370Z,59.47
2019-03-06T12:33:50.017Z,59.34
2019-03-06T12:36:18.692Z,59.21
2019-03-06T12:38:47.260Z,59.25
2019-03-06T12:41:16.110Z,59.35
2019-03-06T12:43:44.757Z,59.37
2019-03-06T12:46:23.519Z,59.45
2019-03-06T12:48:54.707Z,59.34
2019-03-06T12:51:23.797Z,59.26
2019-03-06T12:53:52.237Z,59.20
2019-03-06T12:56:20.794Z,58.97
2019-03-06T12:58:49.229Z,59.12
2019-03-06T13:01:17.717Z,59.10
2019-03-06T13:03:47.483Z,59.06
2019-03-06T13:06:24.153Z,58.77
2019-03-06T13:08:50.452Z,58.97
2019-03-06T13:11:16.514Z,58.93
2019-03-06T13:13:45.011Z,58.99
2019-03-06T13:16:13.815Z,58.90
2019-03-06T13:18:42.277Z,58.69
2019-03-06T13:21:10.751Z,58.64
2019-03-06T13:23:39.248Z,58.76
2019-03-06T13:26:10.741Z,58.75
2019-03-06T13:28:38.133Z,58.81
2019-03-06T13:31:06.842Z,58.62
2019-03-06T13:33:36.924Z,58.53
2019-03-06T13:36:05.934Z,58.47
2019-03-06T13:38:34.401Z,58.59
2019-03-06T13:41:02.878Z,58.52
2019-03-06T13:43:31.316Z,58.54
2019-03-06T13:45:59.843Z,58.47
2019-03-06T13:48:28.268Z,58.43
2019-03-06T13:50:57.016Z,58.38
2019-03-06T13:53:25.710Z,58.24
2019-03-06T13:55:54.194Z,58.12
2019-03-06T13:58:22.638Z,58.22
2019-03-06T14:00:51.078Z,58.41
2019-03-06T14:03:21.049Z,58.56
2019-03-06T14:05:49.514Z,58.70
2019-03-06T14:08:18.158Z,58.82
2019-03-06T14:10:46.832Z,58.91
2019-03-06T14:13:15.358Z,58.92
2019-03-06T14:15:43.871Z,58.82
2019-03-06T14:18:13.348Z,58.93
2019-03-06T14:20:41.999Z,58.92
2019-03-06T14:23:10.921Z,58.78
2019-03-06T14:25:39.366Z,58.79
2019-03-06T14:28:08.011Z,58.66
2019-03-06T14:30:39.403Z,58.67
2019-03-06T14:33:07.951Z,58.63
2019-03-06T14:35:36.463Z,58.51
2019-03-06T14:38:07.245Z,58.39
2019-03-06T14:40:36.348Z,58.26
2019-03-06T14:43:09.427Z,58.17
2019-03-06T14:45:38.419Z,57.94
2019-03-06T14:48:07.517Z,58.14
2019-03-06T14:50:36.211Z,57.99
2019-03-06T14:53:06.281Z,58.00
2019-03-06T14:55:36.131Z,58.01
2019-03-06T14:58:04.830Z,57.99
2019-03-06T15:00:33.347Z,58.15
2019-03-06T15:03:01.792Z,58.17
2019-03-06T15:05:30.471Z,58.15
2019-03-06T15:08:01.793Z,58.22
2019-03-06T15:10:30.384Z,58.09
2019-03-06T15:12:58.873Z,58.33
2019-03-06T15:15:27.563Z,58.23
2019-03-06T15:17:56.053Z,58.24
2019-03-06T15:20:28.201Z,58.32
2019-03-06T15:22:57.589Z,58.34
2019-03-06T15:25:28.467Z,58.26
2019-03-06T15:27:56.901Z,58.23
2019-03-06T15:30:25.528Z,58.20
2019-03-06T15:32:54.089Z,58.21
2019-03-06T15:35:23.044Z,58.36
2019-03-06T15:37:51.682Z,58.46
2019-03-06T15:40:26.493Z,58.48
2019-03-06T15:42:54.971Z,58.58
2019-03-06T15:45:26.200Z,58.49
2019-03-06T15:47:55.173Z,58.48
2019-03-06T15:50:23.959Z,58.43
2019-03-06T15:52:53.077Z,58.41
2019-03-06T15:55:27.271Z,58.47
2019-03-06T15:57:55.767Z,58.32
2019-03-06T16:00:46.318Z,58.18
2019-03-06T16:03:15.250Z,58.08
2019-03-06T16:05:44.124Z,57.94
2019-03-06T16:08:13.813Z,58.04
2019-03-06T16:10:42.662Z,58.05
2019-03-06T16:13:11.374Z,58.16
2019-03-06T16:15:39.825Z,58.30
2019-03-06T16:18:10.296Z,58.55
2019-03-06T16:20:39.988Z,58.79
2019-03-06T16:23:08.448Z,58.92
2019-03-06T16:25:39.972Z,59.15
2019-03-06T16:28:10.718Z,59.38
2019-03-06T16:30:40.387Z,59.66
2019-03-06T16:33:08.870Z,59.80
2019-03-06T16:35:37.324Z,59.96
2019-03-06T16:38:06.066Z,60.07
2019-03-06T16:40:34.573Z,60.18
2019-03-06T16:43:03.050Z,60.11
2019-03-06T16:45:31.510Z,60.07
2019-03-06T16:48:01.033Z,59.99
2019-03-06T16:50:29.642Z,60.01
2019-03-06T16:52:58.234Z,59.94
2019-03-06T16:55:27.482Z,59.96
2019-03-06T16:57:56.887Z,59.93
2019-03-06T17:00:30.936Z,59.87
2019-03-06T17:03:02.479Z,59.86
2019-03-06T17:05:32.419Z,59.76
2019-03-06T17:08:01.209Z,59.66
2019-03-06T17:10:31.106Z,59.43
2019-03-06T17:12:59.910Z,59.44
2019-03-06T17:15:29.614Z,59.49
2019-03-06T17:17:58.180Z,59.46
2019-03-06T17:20:30.624Z,59.57
2019-03-06T17:23:03.264Z,59.60
2019-03-06T17:25:32.851Z,59.73
2019-03-06T17:28:01.340Z,59.74
2019-03-06T17:30:34.818Z,59.71
2019-03-06T17:33:14.884Z,59.83
2019-03-06T17:35:43.355Z,59.96
2019-03-06T17:38:15.725Z,60.07
2019-03-06T17:40:45.219Z,60.17
2019-03-06T17:43:14.531Z,60.24
2019-03-06T17:45:43.489Z,60.33
2019-03-06T17:48:12.303Z,60.32
2019-03-06T17:50:42.039Z,60.37
2019-03-06T17:53:10.558Z,60.44
2019-03-06T17:55:38.986Z,60.48
2019-03-06T17:58:07.677Z,60.55
2019-03-06T18:00:46.877Z,60.63
2019-03-06T18:03:17.139Z,60.65
2019-03-06T18:05:45.660Z,60.56
2019-03-06T18:08:14.097Z,60.53
2019-03-06T18:10:42.769Z,60.53
2019-03-06T18:13:11.556Z,60.54
2019-03-06T18:15:40.075Z,60.54
2019-03-06T18:18:08.657Z,60.49
2019-03-06T18:20:37.142Z,60.45
2019-03-06T18:23:05.594Z,60.36
2019-03-06T18:25:34.182Z,60.16
2019-03-06T18:28:02.812Z,60.02
2019-03-06T18:30:31.319Z,59.98
2019-03-06T18:32:59.801Z,59.90
2019-03-06T18:35:28.323Z,59.89
2019-03-06T18:37:57.073Z,59.89
2019-03-06T18:40:27.495Z,59.85
2019-03-06T18:42:56.043Z,59.85
2019-03-06T18:45:24.831Z,59.83
2019-03-06T18:47:53.575Z,59.85
2019-03-06T18:50:23.104Z,59.89
2019-03-06T18:52:52.097Z,59.88
2019-03-06T18:55:21.298Z,59.90
2019-03-06T18:57:50.015Z,59.93
2019-03-06T19:00:22.693Z,59.94
2019-03-06T19:02:51.497Z,59.98
2019-03-06T19:05:21.001Z,59.92
2019-03-06T19:07:52.845Z,59.92
2019-03-06T19:10:22.448Z,59.99
2019-03-06T19:12:51.165Z,59.93
2019-03-06T19:15:28.935Z,59.91
2019-03-06T19:17:57.407Z,59.89
2019-03-06T19:20:25.855Z,59.84
2019-03-06T19:22:54.846Z,59.84
2019-03-06T19:25:23.780Z,59.78
2019-03-06T19:27:52.465Z,59.76
2019-03-06T19:30:25.852Z,59.73
2019-03-06T19:32:54.748Z,59.76
2019-03-06T19:35:26.275Z,59.72
2019-03-06T19:37:54.797Z,59.71
2019-03-06T19:40:23.585Z,59.68
2019-03-06T19:42:52.105Z,59.69
2019-03-06T19:45:24.051Z,59.76
2019-03-06T19:47:52.549Z,59.83
2019-03-06T19:50:26.256Z,59.84
2019-03-06T19:52:55.027Z,59.80
2019-03-06T19:55:23.835Z,59.81
2019-03-06T19:58:09.737Z,59.80
2019-03-06T20:00:38.270Z,59.75
2019-03-06T20:03:10.748Z,59.71
2019-03-06T20:05:42.656Z,59.77
2019-03-06T20:08:13.783Z,59.80
2019-03-06T20:10:42.400Z,59.83
2019-03-06T20:13:11.876Z,59.91
2019-03-06T20:15:41.583Z,59.99
2019-03-06T20:18:10.493Z,60.08
2019-03-06T20:20:39.332Z,60.11
2019-03-06T20:23:08.440Z,60.15
2019-03-06T20:25:37.303Z,60.25
2019-03-06T20:28:06.147Z,60.28
2019-03-06T20:30:34.648Z,60.34
2019-03-06T20:33:03.471Z,60.41
2019-03-06T20:35:31.921Z,60.42
2019-03-06T20:38:00.827Z,60.44
2019-03-06T20:40:29.305Z,60.39
2019-03-06T20:42:57.745Z,60.41
2019-03-06T20:45:26.299Z,60.45
2019-03-06T20:47:55.198Z,60.47
2019-03-06T20:50:23.700Z,60.48
2019-03-06T20:52:52.559Z,60.50
2019-03-06T20:55:21.339Z,60.48
2019-03-06T20:57:49.856Z,60.46
2019-03-06T21:00:26.323Z,60.47
2019-03-06T21:02:54.801Z,60.49
2019-03-06T21:05:23.235Z,60.56
2019-03-06T21:07:51.761Z,60.64
2019-03-06T21:10:21.257Z,60.75
2019-03-06T21:12:49.883Z,60.84
2019-03-06T21:15:23.071Z,60.86
2019-03-06T21:17:51.495Z,60.87
2019-03-06T21:20:24.172Z,60.85
2019-03-06T21:22:52.630Z,60.83
2019-03-06T21:25:22.083Z,60.77
2019-03-06T21:27:50.913Z,60.76
2019-03-06T21:30:25.314Z,60.73
2019-03-06T21:32:53.914Z,60.67
2019-03-06T21:35:22.413Z,60.65
2019-03-06T21:37:50.998Z,60.69
2019-03-06T21:40:19.476Z,60.70
2019-03-06T21:42:48.226Z,60.74
2019-03-06T21:45:16.684Z,60.75
2019-03-06T21:47:45.209Z,60.81
2019-03-06T21:50:15.617Z,60.80
2019-03-06T21:52:46.914Z,60.84
2019-03-06T21:55:16.104Z,60.84
2019-03-06T21:57:44.893Z,60.85
2019-03-06T22:00:23.775Z,60.88
2019-03-06T22:02:52.391Z,60.92
2019-03-06T22:05:21.178Z,60.95
2019-03-06T22:07:50.895Z,61.07
2019-03-06T22:10:19.940Z,61.05
2019-03-06T22:12:48.610Z,61.00
2019-03-06T22:15:22.011Z,61.00
2019-03-06T22:17:50.446Z,61.00
2019-03-06T22:20:18.953Z,61.04
2019-03-06T22:22:47.409Z,60.99
2019-03-06T22:25:17.580Z,60.96
2019-03-06T22:27:46.014Z,61.00
2019-03-06T22:30:19.353Z,61.11
2019-03-06T22:32:47.788Z,61.03
2019-03-06T22:35:16.315Z,60.98
2019-03-06T22:37:44.826Z,60.96
2019-03-06T22:40:20.820Z,60.99
2019-03-06T22:42:49.545Z,61.07
2019-03-06T22:45:20.440Z,61.08
2019-03-06T22:47:49.016Z,61.15
2019-03-06T22:50:18.524Z,61.29
2019-03-06T22:52:47.259Z,61.39
2019-03-06T22:55:20.547Z,61.33
2019-03-06T22:57:49.049Z,61.27
2019-03-06T23:00:36.970Z,61.24
2019-03-06T23:03:05.999Z,61.32
2019-03-06T23:05:38.276Z,61.50
2019-03-06T23:08:06.895Z,61.65
2019-03-06T23:10:35.348Z,61.59
2019-03-06T23:13:03.795Z,61.53
2019-03-06T23:15:32.234Z,61.58
2019-03-06T23:18:00.690Z,61.53
2019-03-06T23:20:29.189Z,61.52
2019-03-06T23:22:57.662Z,61.55
2019-03-06T23:25:26.224Z,61.62
2019-03-06T23:27:54.649Z,61.80
2019-03-06T23:30:23.092Z,61.83
2019-03-06T23:32:51.943Z,61.73
2019-03-06T23:35:20.443Z,61.75
2019-03-06T23:37:48.949Z,61.86
2019-03-06T23:40:17.384Z,61.88
2019-03-06T23:42:47.978Z,62.05
2019-03-06T23:45:16.103Z,62.06
2019-03-06T23:47:44.584Z,62.08
2019-03-06T23:52:59.126Z,61.99
2019-03-06T23:55:29.238Z,61.82
2019-03-06T23:57:58.021Z,61.84
